Time;durP1;ratioP1;P1;durP2;ratioP2;P2;SDS_P1;SDS_P2;PMS_P1;PMS_P2;Temp;Humidity;BMP_temperature;BMP_pressure;BME280_temperature;BME280_humidity;BME280_pressure;Samples;Min_cycle;Max_cycle;Signal;HPM_P1;HPM_P2
2021/12/22 00:00:52;;;;;;;23.63;14.20;;;-0.90;99.90;;;;;;5034540;28;20029;-43
2021/12/22 00:03:18;;;;;;;21.30;13.48;;;-0.90;99.90;;;;;;5030388;28;20876;-43
2021/12/22 00:05:46;;;;;;;23.30;14.70;;;-0.90;99.90;;;;;;5040496;28;20041;-42
2021/12/22 00:08:13;;;;;;;21.90;15.13;;;-1.00;99.90;;;;;;5032267;28;20021;-44
2021/12/22 00:10:41;;;;;;;21.40;13.73;;;-1.00;99.90;;;;;;5041893;28;20091;-43
2021/12/22 00:13:06;;;;;;;19.93;14.03;;;-1.10;99.90;;;;;;5031192;28;20098;-44
2021/12/22 00:15:32;;;;;;;20.63;12.63;;;-1.10;99.90;;;;;;5038174;28;20439;-42
2021/12/22 00:17:58;;;;;;;20.40;12.87;;;-1.10;99.90;;;;;;5029488;28;20559;-43
2021/12/22 00:20:23;;;;;;;22.27;13.60;;;-1.10;99.90;;;;;;5042287;28;20109;-43
2021/12/22 00:22:49;;;;;;;23.60;14.80;;;-1.10;99.90;;;;;;5030515;28;20045;-43
2021/12/22 00:25:16;;;;;;;19.77;12.63;;;-1.10;99.90;;;;;;5042634;28;20527;-43
2021/12/22 00:27:42;;;;;;;18.40;12.63;;;-1.10;99.90;;;;;;5029722;28;20029;-42
2021/12/22 00:30:08;;;;;;;21.03;12.83;;;-1.10;99.90;;;;;;5040192;28;20144;-42
2021/12/22 00:32:36;;;;;;;21.53;13.37;;;-1.10;99.90;;;;;;5032760;28;20056;-42
2021/12/22 00:35:03;;;;;;;22.90;14.07;;;-1.10;99.90;;;;;;5037296;28;20025;-43
2021/12/22 00:37:30;;;;;;;23.37;14.70;;;-1.10;99.90;;;;;;5034709;28;20500;-44
2021/12/22 00:39:58;;;;;;;26.23;15.57;;;-1.10;99.90;;;;;;5035662;28;20029;-44
2021/12/22 00:42:26;;;;;;;23.80;14.90;;;-1.10;99.90;;;;;;5035541;28;20503;-44
2021/12/22 00:44:54;;;;;;;22.47;13.67;;;-1.10;99.90;;;;;;5033702;28;20025;-42
2021/12/22 00:47:22;;;;;;;20.67;13.83;;;-1.10;99.90;;;;;;5038009;28;20041;-43
2021/12/22 00:49:48;;;;;;;20.63;14.17;;;-1.10;99.90;;;;;;5031444;28;20043;-44
2021/12/22 00:52:13;;;;;;;22.03;13.53;;;-1.10;99.90;;;;;;5040963;28;20556;-44
2021/12/22 00:54:39;;;;;;;25.43;14.53;;;-1.20;99.90;;;;;;5030435;28;20017;-43
2021/12/22 00:57:10;;;;;;;20.57;13.43;;;-1.20;99.90;;;;;;5041122;28;20344;-43
2021/12/22 00:59:37;;;;;;;22.73;13.80;;;-1.20;99.90;;;;;;5030827;28;20033;-42
2021/12/22 01:02:06;;;;;;;21.97;15.30;;;-1.20;99.90;;;;;;5040221;28;20492;-43
2021/12/22 01:04:31;;;;;;;25.63;15.73;;;-1.20;99.90;;;;;;5029655;28;20075;-43
2021/12/22 01:07:00;;;;;;;24.73;14.27;;;-1.20;99.90;;;;;;5041830;28;20021;-43
2021/12/22 01:09:26;;;;;;;25.30;15.50;;;-1.20;99.90;;;;;;5028863;28;20489;-43
2021/12/22 01:11:51;;;;;;;24.10;14.47;;;-1.20;99.90;;;;;;5042179;28;20029;-43
2021/12/22 01:14:17;;;;;;;26.33;14.93;;;-1.20;99.90;;;;;;5029810;28;20442;-43
2021/12/22 01:16:47;;;;;;;26.67;16.67;;;-1.30;99.90;;;;;;5038694;28;20048;-43
2021/12/22 01:19:18;;;;;;;28.43;17.50;;;-1.20;99.90;;;;;;5031099;28;20057;-43
2021/12/22 01:21:49;;;;;;;25.83;15.50;;;-1.30;99.90;;;;;;5038235;28;20052;-43
2021/12/22 01:24:28;;;;;;;28.97;17.43;;;-1.30;99.90;;;;;;5031239;28;20056;-43
2021/12/22 01:27:03;;;;;;;25.53;15.77;;;-1.30;99.90;;;;;;5038549;28;20025;-44
2021/12/22 01:29:33;;;;;;;27.37;17.67;;;-1.30;99.90;;;;;;5030251;28;20026;-42
2021/12/22 01:31:58;;;;;;;27.20;16.03;;;-1.30;99.90;;;;;;5037485;28;20046;-43
2021/12/22 01:34:25;;;;;;;25.03;15.47;;;-1.30;99.90;;;;;;5033498;28;20026;-43
2021/12/22 01:36:50;;;;;;;27.97;15.97;;;-1.30;99.90;;;;;;5033721;28;20032;-44
2021/12/22 01:39:17;;;;;;;23.10;13.87;;;-1.30;99.90;;;;;;5036540;28;20030;-43
2021/12/22 01:41:42;;;;;;;24.43;14.87;;;-1.30;99.90;;;;;;5031434;28;20539;-43
2021/12/22 01:44:10;;;;;;;24.40;14.60;;;-1.40;99.90;;;;;;5037208;28;20025;-43
2021/12/22 01:49:10;;;;;;;27.93;16.17;;;-1.40;99.90;;;;;;5039277;28;20029;-43
2021/12/22 01:51:39;;;;;;;29.43;16.87;;;-1.40;99.90;;;;;;5029673;28;20163;-43
2021/12/22 01:54:13;;;;;;;23.70;14.17;;;-1.40;99.90;;;;;;5035482;28;20033;-42
2021/12/22 01:56:42;;;;;;;26.40;16.13;;;-1.40;99.90;;;;;;5030665;28;20037;-43
2021/12/22 01:59:08;;;;;;;25.00;14.43;;;-1.40;99.90;;;;;;5039087;28;20036;-42
2021/12/22 02:01:35;;;;;;;26.20;15.53;;;-1.40;99.90;;;;;;5028732;28;20049;-42
2021/12/22 02:04:04;;;;;;;24.57;14.33;;;-1.40;99.90;;;;;;5036585;28;20036;-43
2021/12/22 02:06:30;;;;;;;28.80;16.30;;;-1.50;99.90;;;;;;5047469;28;20021;-43
2021/12/22 02:08:57;;;;;;;33.00;17.90;;;-1.50;99.90;;;;;;5035458;28;20037;-44
2021/12/22 02:11:23;;;;;;;27.00;16.93;;;-1.50;99.90;;;;;;5048446;28;20045;-43
2021/12/22 02:13:57;;;;;;;27.87;15.70;;;-1.50;99.90;;;;;;5035264;28;20075;-44
2021/12/22 02:16:28;;;;;;;27.27;16.10;;;-1.50;99.90;;;;;;5028495;28;20091;-43
2021/12/22 02:18:55;;;;;;;26.87;15.40;;;-1.50;99.90;;;;;;5038626;28;20036;-42
2021/12/22 02:21:26;;;;;;;24.63;14.43;;;-1.50;99.90;;;;;;5029738;28;20034;-43
2021/12/22 02:23:53;;;;;;;27.40;15.50;;;-1.60;99.90;;;;;;5037300;28;20060;-42
2021/12/22 02:26:23;;;;;;;24.63;14.87;;;-1.60;99.90;;;;;;5030089;28;20059;-44
2021/12/22 02:28:57;;;;;;;22.67;14.10;;;-1.60;99.90;;;;;;5035974;28;20033;-44
2021/12/22 02:31:23;;;;;;;26.77;14.50;;;-1.60;99.90;;;;;;5031063;28;20029;-44
2021/12/22 02:33:50;;;;;;;29.87;15.97;;;-1.60;99.90;;;;;;5033826;28;20025;-42
2021/12/22 02:38:45;;;;;;;26.70;14.30;;;-1.60;99.90;;;;;;5031895;28;20049;-43
2021/12/22 02:41:14;;;;;;;22.00;13.03;;;-1.60;99.90;;;;;;5035741;28;20025;-42
2021/12/22 02:43:48;;;;;;;25.10;12.77;;;-1.70;99.90;;;;;;5029203;28;20450;-42
2021/12/22 02:46:16;;;;;;;23.63;13.70;;;-1.70;99.90;;;;;;5037223;28;20032;-43
2021/12/22 02:48:42;;;;;;;24.40;14.20;;;-1.70;99.90;;;;;;5027846;28;20416;-43
2021/12/22 02:51:08;;;;;;;23.20;14.10;;;-1.70;99.90;;;;;;5038882;28;20519;-44
2021/12/22 02:53:44;;;;;;;23.70;14.50;;;-1.70;99.90;;;;;;5033132;28;20107;-43
2021/12/22 02:56:29;;;;;;;29.73;16.03;;;-1.70;99.90;;;;;;5036042;28;20025;-43
2021/12/22 02:59:02;;;;;;;22.07;13.83;;;-1.70;99.90;;;;;;5046519;28;20746;-42
2021/12/22 03:04:21;;;;;;;22.23;13.23;;;-1.80;99.90;;;;;;5046109;28;20032;-41
2021/12/22 03:07:12;;;;;;;19.97;13.07;;;-1.80;99.90;;;;;;5026064;28;20036;-43
2021/12/22 03:09:35;;;;;;;27.63;16.07;;;-1.80;99.90;;;;;;5043384;28;20036;-42
2021/12/22 03:12:05;;;;;;;30.17;16.37;;;-1.80;99.90;;;;;;5037379;28;20036;-42
2021/12/22 03:14:31;;;;;;;26.83;15.40;;;-1.80;99.90;;;;;;5045595;28;20821;-43
2021/12/22 03:16:58;;;;;;;24.37;13.97;;;-1.80;99.90;;;;;;5035245;28;20031;-42
2021/12/22 03:19:32;;;;;;;22.77;13.40;;;-1.80;99.90;;;;;;5045021;28;20484;-43
2021/12/22 03:22:04;;;;;;;25.87;14.77;;;-1.90;99.90;;;;;;5035288;28;20538;-43
2021/12/22 03:24:32;;;;;;;22.85;13.73;;;-1.90;99.90;;;;;;5045434;28;20100;-44
2021/12/22 03:27:03;;;;;;;24.00;14.23;;;-1.90;99.90;;;;;;5037841;28;20477;-41
2021/12/22 03:29:33;;;;;;;23.53;13.60;;;-1.90;99.90;;;;;;5026446;28;20104;-42
2021/12/22 03:31:59;;;;;;;22.90;13.87;;;-1.90;99.90;;;;;;5034655;28;20123;-43
2021/12/22 03:34:25;;;;;;;24.27;13.97;;;-1.90;99.90;;;;;;5046822;28;20108;-43
2021/12/22 03:36:51;;;;;;;22.20;13.93;;;-1.90;99.90;;;;;;5032914;28;20059;-42
2021/12/22 03:39:17;;;;;;;21.47;12.77;;;-1.90;99.90;;;;;;5047032;28;20075;-43
2021/12/22 03:41:44;;;;;;;24.73;13.60;;;-2.00;99.90;;;;;;5035064;28;20131;-44
2021/12/22 03:44:10;;;;;;;27.23;13.87;;;-2.00;99.90;;;;;;5045018;28;20040;-43
2021/12/22 03:46:36;;;;;;;22.17;13.57;;;-2.00;99.90;;;;;;5037815;28;20037;-42
2021/12/22 03:49:05;;;;;;;22.40;13.60;;;-2.00;99.90;;;;;;5043355;28;20162;-41
2021/12/22 03:51:31;;;;;;;21.10;13.40;;;-2.00;99.90;;;;;;5038662;28;20045;-43
2021/12/22 03:53:56;;;;;;;20.23;12.40;;;-2.00;99.90;;;;;;5041317;28;20115;-43
2021/12/22 03:56:22;;;;;;;20.07;12.43;;;-2.00;99.90;;;;;;5041933;28;20493;-44
2021/12/22 03:58:48;;;;;;;20.97;12.37;;;-2.00;99.90;;;;;;5037878;28;20120;-45
2021/12/22 04:01:14;;;;;;;24.27;13.20;;;-2.00;99.90;;;;;;5044881;28;20079;-43
2021/12/22 04:03:41;;;;;;;21.90;12.23;;;-2.10;99.90;;;;;;5035911;28;20032;-43
2021/12/22 04:06:08;;;;;;;24.53;13.50;;;-2.10;99.90;;;;;;5044645;28;20048;-44
2021/12/22 04:08:33;;;;;;;24.80;14.10;;;-2.10;99.90;;;;;;5035114;28;20017;-43
2021/12/22 04:10:59;;;;;;;24.23;13.77;;;-2.10;99.90;;;;;;5045488;28;20029;-44
2021/12/22 04:13:24;;;;;;;25.57;14.33;;;-2.10;99.90;;;;;;5034146;28;20646;-43
2021/12/22 04:15:53;;;;;;;23.47;13.57;;;-2.10;99.90;;;;;;5046870;28;20036;-44
2021/12/22 04:18:19;;;;;;;23.03;13.80;;;-2.10;99.90;;;;;;5032918;28;20030;-44
2021/12/22 04:20:45;;;;;;;23.90;13.80;;;-2.10;99.90;;;;;;5046381;28;20436;-43
2021/12/22 04:23:11;;;;;;;25.80;15.07;;;-2.10;99.90;;;;;;5034188;28;20120;-43
2021/12/22 04:25:36;;;;;;;21.80;13.03;;;-2.10;99.90;;;;;;5045666;28;20109;-44
2021/12/22 04:28:08;;;;;;;22.53;13.30;;;-2.20;99.90;;;;;;5036342;28;20028;-43
2021/12/22 04:30:36;;;;;;;27.20;12.90;;;-2.20;99.90;;;;;;5044409;28;20017;-42
2021/12/22 04:33:02;;;;;;;21.37;12.47;;;-2.20;99.90;;;;;;5036904;28;20091;-42
2021/12/22 04:35:28;;;;;;;21.73;12.80;;;-2.20;99.90;;;;;;5041820;28;20072;-43
2021/12/22 04:37:53;;;;;;;21.97;12.83;;;-2.20;99.90;;;;;;5040819;28;20112;-44
2021/12/22 04:40:19;;;;;;;26.80;14.83;;;-2.20;99.90;;;;;;5038813;28;20421;-44
2021/12/22 04:42:45;;;;;;;25.63;14.57;;;-2.20;99.90;;;;;;5042882;28;20060;-44
2021/12/22 04:45:12;;;;;;;25.27;14.60;;;-2.20;99.90;;;;;;5037063;28;20025;-41
2021/12/22 04:47:38;;;;;;;25.07;14.47;;;-2.20;99.90;;;;;;5044085;28;20025;-43
2021/12/22 04:50:10;;;;;;;23.70;13.13;;;-2.30;99.90;;;;;;5038032;28;20021;-43
2021/12/22 04:52:43;;;;;;;27.10;13.43;;;-2.30;99.90;;;;;;5048114;28;20072;-42
2021/12/22 04:55:09;;;;;;;29.90;15.37;;;-2.30;99.90;;;;;;5027451;28;20103;-43
2021/12/22 04:57:35;;;;;;;24.53;14.10;;;-2.30;99.90;;;;;;5048732;28;20136;-43
2021/12/22 05:00:03;;;;;;;25.20;13.87;;;-2.30;99.90;;;;;;5038029;28;20029;-42
2021/12/22 05:02:29;;;;;;;24.57;14.03;;;-2.30;99.90;;;;;;5049024;28;20083;-44
2021/12/22 05:04:54;;;;;;;29.13;16.17;;;-2.40;99.90;;;;;;5037290;28;20021;-44
2021/12/22 05:07:19;;;;;;;28.40;15.33;;;-2.40;99.90;;;;;;5049187;28;20373;-42
2021/12/22 05:09:45;;;;;;;29.43;16.77;;;-2.40;99.90;;;;;;5036928;28;20030;-43
2021/12/22 05:12:11;;;;;;;26.87;15.57;;;-2.40;99.90;;;;;;5049867;28;20037;-43
2021/12/22 05:14:36;;;;;;;29.20;15.53;;;-2.40;99.90;;;;;;5039221;28;20068;-42
2021/12/22 05:17:05;;;;;;;29.63;16.13;;;-2.40;99.90;;;;;;5046502;28;20025;-45
2021/12/22 05:19:30;;;;;;;25.27;14.23;;;-2.40;99.90;;;;;;5041696;28;20026;-42
2021/12/22 05:21:56;;;;;;;28.50;15.30;;;-2.40;99.90;;;;;;5043637;28;20073;-43
2021/12/22 05:24:22;;;;;;;29.67;15.90;;;-2.40;99.90;;;;;;5044202;28;20042;-43
2021/12/22 05:26:48;;;;;;;26.10;14.67;;;-2.40;99.90;;;;;;5041685;28;20039;-45
2021/12/22 05:29:14;;;;;;;27.43;15.30;;;-2.40;99.90;;;;;;5046150;28;20393;-43
2021/12/22 05:31:40;;;;;;;27.43;14.50;;;-2.50;99.90;;;;;;5039081;28;20037;-43
2021/12/22 05:34:05;;;;;;;24.70;13.53;;;-2.50;99.90;;;;;;5047290;28;20052;-43
2021/12/22 05:36:31;;;;;;;29.40;15.13;;;-2.50;99.90;;;;;;5037299;28;20021;-44
2021/12/22 05:38:57;;;;;;;29.97;15.10;;;-2.50;99.90;;;;;;5047943;28;20017;-43
2021/12/22 05:41:23;;;;;;;29.40;14.33;;;-2.50;99.90;;;;;;5037144;28;20043;-43
2021/12/22 05:43:48;;;;;;;27.63;14.23;;;-2.50;99.90;;;;;;5048476;28;20021;-44
2021/12/22 05:46:14;;;;;;;22.63;12.53;;;-2.50;99.90;;;;;;5036173;28;20111;-44
2021/12/22 05:48:40;;;;;;;32.80;15.90;;;-2.50;99.90;;;;;;5048805;28;20025;-43
2021/12/22 05:51:06;;;;;;;26.80;14.47;;;-2.50;99.90;;;;;;5036098;28;20107;-44
2021/12/22 05:53:32;;;;;;;24.93;14.20;;;-2.50;99.90;;;;;;5048264;28;20064;-43
2021/12/22 05:55:58;;;;;;;25.00;13.93;;;-2.60;99.90;;;;;;5038880;28;20064;-44
2021/12/22 05:58:25;;;;;;;25.63;13.27;;;-2.50;99.90;;;;;;5045041;28;20033;-41
2021/12/22 06:00:51;;;;;;;25.63;14.23;;;-2.60;99.90;;;;;;5040260;28;20354;-43
2021/12/22 06:03:16;;;;;;;25.97;13.83;;;-2.60;99.90;;;;;;5043501;28;20039;-44
2021/12/22 06:05:42;;;;;;;32.33;16.47;;;-2.60;99.90;;;;;;5043308;28;20044;-44
2021/12/22 06:08:08;;;;;;;26.30;14.30;;;-2.60;99.90;;;;;;5040468;28;20033;-44
2021/12/22 06:10:34;;;;;;;26.83;14.17;;;-2.60;99.90;;;;;;5046226;28;20754;-42
2021/12/22 06:13:09;;;;;;;27.87;15.03;;;-2.70;99.90;;;;;;5037612;28;20032;-43
2021/12/22 06:15:37;;;;;;;28.07;15.73;;;-2.70;99.90;;;;;;5046728;28;20040;-43
2021/12/22 06:18:04;;;;;;;30.07;16.17;;;-2.70;99.90;;;;;;5036274;28;20029;-43
2021/12/22 06:20:31;;;;;;;29.43;15.00;;;-2.70;99.90;;;;;;5046404;28;20033;-43
2021/12/22 06:22:56;;;;;;;31.17;15.83;;;-2.70;99.90;;;;;;5036593;28;20041;-44
2021/12/22 06:25:23;;;;;;;34.70;17.47;;;-2.80;99.90;;;;;;5047233;28;20094;-44
2021/12/22 06:27:49;;;;;;;29.00;15.17;;;-2.80;99.90;;;;;;5035727;28;20025;-43
2021/12/22 06:30:15;;;;;;;34.07;17.47;;;-2.80;99.90;;;;;;5048889;28;20029;-43
2021/12/22 06:32:43;;;;;;;32.07;16.37;;;-2.80;99.90;;;;;;5034649;28;20140;-43
2021/12/22 06:35:09;;;;;;;27.50;14.50;;;-2.80;99.90;;;;;;5047706;28;20064;-43
2021/12/22 06:37:34;;;;;;;30.47;15.27;;;-2.80;99.90;;;;;;5036330;28;20057;-43
2021/12/22 06:40:00;;;;;;;29.17;15.33;;;-2.80;99.90;;;;;;5046380;28;20029;-43
2021/12/22 06:42:26;;;;;;;27.30;14.93;;;-2.80;99.90;;;;;;5038857;28;20025;-43
2021/12/22 06:44:54;;;;;;;28.10;14.53;;;-2.80;99.90;;;;;;5043919;28;20443;-44
2021/12/22 06:47:20;;;;;;;31.20;14.70;;;-2.80;99.90;;;;;;5040005;28;20029;-43
2021/12/22 06:49:45;;;;;;;28.07;14.03;;;-2.80;99.90;;;;;;5041580;28;20094;-41
2021/12/22 06:52:11;;;;;;;24.73;13.33;;;-2.80;99.90;;;;;;5043523;28;20187;-42
2021/12/22 06:54:36;;;;;;;23.70;12.73;;;-2.80;99.90;;;;;;5042679;28;20029;-44
2021/12/22 06:57:02;;;;;;;30.80;14.67;;;-2.80;99.90;;;;;;5035913;28;20075;-42
2021/12/22 06:59:28;;;;;;;24.07;12.73;;;-2.90;99.90;;;;;;5038287;28;20021;-44
2021/12/22 07:01:53;;;;;;;21.87;12.00;;;-2.90;99.90;;;;;;5027086;28;20120;-42
2021/12/22 07:04:19;;;;;;;19.87;11.43;;;-2.90;99.90;;;;;;5036488;28;20497;-43
2021/12/22 07:06:46;;;;;;;20.50;11.10;;;-2.90;99.90;;;;;;5026423;28;20033;-42
2021/12/22 07:09:11;;;;;;;28.00;13.83;;;-2.90;99.90;;;;;;5038494;28;20049;-42
2021/12/22 07:11:38;;;;;;;25.70;13.63;;;-2.90;99.90;;;;;;5026463;28;20065;-43
2021/12/22 07:14:06;;;;;;;24.53;13.10;;;-2.80;99.90;;;;;;5037677;28;20017;-44
2021/12/22 07:16:32;;;;;;;29.57;15.03;;;-2.80;99.90;;;;;;5026553;28;20029;-43
2021/12/22 07:18:58;;;;;;;31.80;15.93;;;-2.90;99.90;;;;;;5039702;28;20033;-43
2021/12/22 07:21:25;;;;;;;29.80;14.90;;;-2.80;99.90;;;;;;5027628;28;20034;-43
2021/12/22 07:23:51;;;;;;;34.17;17.00;;;-2.90;99.90;;;;;;5034421;28;20064;-44
2021/12/22 07:26:17;;;;;;;29.80;16.13;;;-2.90;99.90;;;;;;5030316;28;20025;-44
2021/12/22 07:28:45;;;;;;;28.87;14.60;;;-2.90;99.90;;;;;;5032389;28;20439;-44
2021/12/22 07:31:12;;;;;;;28.60;13.67;;;-2.90;99.90;;;;;;5031936;28;20025;-43
2021/12/22 07:33:38;;;;;;;28.33;13.90;;;-2.90;99.90;;;;;;5030685;28;20040;-43
2021/12/22 07:36:05;;;;;;;24.77;13.77;;;-2.90;99.90;;;;;;5034392;28;20029;-43
2021/12/22 07:38:34;;;;;;;27.63;13.37;;;-2.90;99.90;;;;;;5028859;28;20480;-43
2021/12/22 07:41:01;;;;;;;20.50;10.80;;;-2.90;99.90;;;;;;5038678;28;20025;-43
2021/12/22 07:43:30;;;;;;;23.27;12.57;;;-2.90;99.90;;;;;;5027406;28;20117;-43
2021/12/22 07:45:56;;;;;;;25.93;13.97;;;-2.90;99.90;;;;;;5035408;28;20025;-44
2021/12/22 07:48:22;;;;;;;27.80;14.53;;;-2.90;99.90;;;;;;5030105;28;20021;-43
2021/12/22 07:50:47;;;;;;;26.77;13.10;;;-2.90;99.90;;;;;;5033783;28;20029;-43
2021/12/22 07:53:13;;;;;;;22.37;12.27;;;-2.90;99.90;;;;;;5042720;28;20095;-43
2021/12/22 07:55:39;;;;;;;23.53;12.37;;;-2.90;99.90;;;;;;5038887;28;20021;-43
2021/12/22 07:58:04;;;;;;;24.10;13.33;;;-2.90;99.90;;;;;;5025827;28;20033;-43
2021/12/22 08:00:30;;;;;;;26.23;13.73;;;-2.80;99.90;;;;;;5038263;28;20035;-43
2021/12/22 08:02:56;;;;;;;22.00;13.00;;;-2.80;99.90;;;;;;5026823;28;20036;-43
2021/12/22 08:05:22;;;;;;;23.20;11.97;;;-2.80;99.90;;;;;;5035931;28;20029;-43
2021/12/22 08:07:48;;;;;;;26.13;13.30;;;-2.80;99.90;;;;;;5028721;28;20080;-44
2021/12/22 08:10:13;;;;;;;21.43;11.60;;;-2.80;99.90;;;;;;5033077;28;20017;-44
2021/12/22 08:12:39;;;;;;;20.27;11.83;;;-2.80;99.90;;;;;;5030992;28;20043;-43
2021/12/22 08:15:05;;;;;;;17.80;10.70;;;-2.70;99.90;;;;;;5031354;28;20036;-42
2021/12/22 08:17:32;;;;;;;20.30;11.43;;;-2.70;99.90;;;;;;5033725;28;20029;-44
2021/12/22 08:19:58;;;;;;;21.17;12.00;;;-2.70;99.90;;;;;;5028332;28;20061;-43
2021/12/22 08:22:24;;;;;;;22.90;12.40;;;-2.70;99.90;;;;;;5036029;28;20037;-43
2021/12/22 08:24:52;;;;;;;20.83;11.30;;;-2.60;99.90;;;;;;5029419;28;20029;-41
2021/12/22 08:27:21;;;;;;;19.53;11.30;;;-2.60;99.90;;;;;;5041995;28;20091;-43
2021/12/22 08:29:47;;;;;;;22.80;12.23;;;-2.60;99.90;;;;;;5030594;28;20452;-43
2021/12/22 08:32:13;;;;;;;17.37;10.73;;;-2.50;99.90;;;;;;5040972;28;20033;-45
2021/12/22 08:34:40;;;;;;;24.53;12.60;;;-2.50;99.90;;;;;;5030671;28;20029;-43
2021/12/22 08:39:59;;;;;;;26.87;11.93;;;-2.50;99.90;;;;;;5029728;28;20099;-41
2021/12/22 08:42:25;;;;;;;17.97;11.33;;;-2.40;99.90;;;;;;5038006;28;20032;-43
2021/12/22 08:44:52;;;;;;;20.73;11.30;;;-2.40;99.90;;;;;;5049931;28;20029;-42
2021/12/22 08:47:18;;;;;;;21.47;10.87;;;-2.40;99.90;;;;;;5036681;28;20104;-43
2021/12/22 08:49:45;;;;;;;17.47;10.37;;;-2.30;99.90;;;;;;5050010;28;20123;-43
2021/12/22 08:52:10;;;;;;;18.93;10.07;;;-2.30;99.90;;;;;;5037343;28;20140;-43
2021/12/22 08:54:36;;;;;;;19.83;10.03;;;-2.30;99.90;;;;;;5029214;28;20021;-43
2021/12/22 08:57:03;;;;;;;17.27;10.83;;;-2.30;99.90;;;;;;5038913;28;20392;-44
2021/12/22 08:59:31;;;;;;;17.60;10.50;;;-2.30;99.90;;;;;;5031351;28;20026;-43
2021/12/22 09:01:57;;;;;;;19.17;10.33;;;-2.30;99.90;;;;;;5035204;28;20025;-43
2021/12/22 09:04:25;;;;;;;17.97;9.90;;;-2.30;99.90;;;;;;5034301;28;20112;-42
2021/12/22 09:06:52;;;;;;;20.27;11.03;;;-2.20;99.90;;;;;;5033254;28;20086;-43
2021/12/22 09:09:19;;;;;;;20.00;10.67;;;-2.20;99.90;;;;;;5036043;28;20018;-43
2021/12/22 09:11:45;;;;;;;24.67;12.23;;;-2.10;99.90;;;;;;5032303;28;20033;-41
2021/12/22 09:14:11;;;;;;;19.43;10.67;;;-2.10;99.90;;;;;;5037884;28;20036;-42
2021/12/22 09:16:39;;;;;;;17.53;9.50;;;-2.10;99.90;;;;;;5030559;28;20109;-42
2021/12/22 09:19:06;;;;;;;17.03;9.10;;;-2.00;99.90;;;;;;5040947;28;20037;-43
2021/12/22 09:21:31;;;;;;;15.67;9.37;;;-2.00;99.90;;;;;;5029674;28;20091;-42
2021/12/22 09:23:57;;;;;;;17.70;9.90;;;-1.90;99.90;;;;;;5039915;28;20049;-43
2021/12/22 09:26:23;;;;;;;16.43;8.43;;;-1.90;99.90;;;;;;5028703;28;20071;-42
2021/12/22 09:28:50;;;;;;;15.27;9.23;;;-1.90;99.90;;;;;;5042175;28;20028;-43
2021/12/22 09:31:15;;;;;;;17.63;9.10;;;-1.90;99.90;;;;;;5046967;28;20138;-44
2021/12/22 09:33:41;;;;;;;17.47;8.53;;;-1.80;99.90;;;;;;5036389;28;20075;-43
2021/12/22 09:36:09;;;;;;;14.17;7.83;;;-1.80;99.90;;;;;;5046504;28;20024;-43
2021/12/22 09:38:35;;;;;;;12.90;7.53;;;-1.70;99.90;;;;;;5038059;28;20054;-44
2021/12/22 09:41:03;;;;;;;13.30;7.87;;;-1.70;99.90;;;;;;5049552;28;20224;-43
2021/12/22 09:43:29;;;;;;;16.50;9.43;;;-1.70;99.90;;;;;;5039060;28;20021;-43
2021/12/22 09:46:02;;;;;;;14.90;9.37;;;-1.70;99.90;;;;;;5044029;28;20503;-44
2021/12/22 09:53:37;;;;;;;16.53;9.43;;;-1.50;99.90;;;;;;5041471;28;20075;-43
2021/12/22 09:56:04;;;;;;;14.03;8.67;;;-1.50;99.90;;;;;;5042287;28;20742;-42
2021/12/22 09:58:30;;;;;;;15.07;9.07;;;-1.50;99.90;;;;;;5043486;28;20026;-43
2021/12/22 10:00:57;;;;;;;15.40;8.17;;;-1.40;99.90;;;;;;5040197;28;20029;-43
2021/12/22 10:03:24;;;;;;;16.33;9.63;;;-1.40;99.90;;;;;;5045764;28;20439;-43
2021/12/22 10:05:50;;;;;;;16.80;9.43;;;-1.30;99.90;;;;;;5037886;28;20029;-43
2021/12/22 10:08:21;;;;;;;15.47;9.77;;;-1.30;99.90;;;;;;5046622;28;20723;-43
2021/12/22 10:11:02;;;;;;;18.17;9.47;;;-1.20;99.90;;;;;;5036592;28;20025;-42
2021/12/22 10:13:29;;;;;;;12.57;8.23;;;-1.20;99.90;;;;;;5046503;28;20470;-43
2021/12/22 10:15:55;;;;;;;13.43;8.33;;;-1.10;99.90;;;;;;5036628;28;20036;-43
2021/12/22 10:18:23;;;;;;;16.27;9.07;;;-1.10;99.90;;;;;;5046186;28;20043;-43
2021/12/22 10:20:51;;;;;;;17.03;9.83;;;-1.10;99.90;;;;;;5036153;28;20040;-43
2021/12/22 10:23:25;;;;;;;16.47;9.50;;;-1.00;99.90;;;;;;5047794;28;20053;-43
2021/12/22 10:25:54;;;;;;;16.67;9.50;;;-1.00;99.90;;;;;;5034484;28;20025;-43
2021/12/22 10:28:20;;;;;;;15.60;9.17;;;-0.90;99.90;;;;;;5048231;28;20028;-44
2021/12/22 10:30:48;;;;;;;15.77;9.03;;;-0.90;99.90;;;;;;5034537;28;20596;-43
2021/12/22 10:33:18;;;;;;;12.93;7.80;;;-0.80;99.90;;;;;;5047056;28;20500;-43
2021/12/22 10:35:59;;;;;;;13.60;8.00;;;-0.80;99.90;;;;;;5034688;28;20575;-44
2021/12/22 10:38:28;;;;;;;14.37;8.37;;;-0.80;99.90;;;;;;5046739;28;20021;-43
2021/12/22 10:41:02;;;;;;;12.97;8.07;;;-0.70;99.90;;;;;;5034910;28;20021;-43
2021/12/22 10:43:30;;;;;;;16.47;9.40;;;-0.70;99.90;;;;;;5047509;28;20013;-44
2021/12/22 10:46:00;;;;;;;12.93;8.40;;;-0.70;99.90;;;;;;5034839;28;20037;-43
2021/12/22 10:49:31;;;;;;;15.27;8.63;;;-0.60;99.90;;;;;;5047366;28;20032;-42
2021/12/22 10:51:28;;;;;;;10.87;7.40;;;-0.60;99.90;;;;;;5024446;28;20041;-44
2021/12/22 10:53:54;;;;;;;11.57;7.37;;;-0.60;99.90;;;;;;5046711;28;20029;-42
2021/12/22 10:56:29;;;;;;;12.53;8.47;;;-0.50;99.90;;;;;;5034930;28;20060;-44
2021/12/22 10:59:06;;;;;;;11.30;7.77;;;-0.50;99.90;;;;;;5007256;28;20116;-43
2021/12/22 11:01:41;;;;;;;11.57;7.77;;;-0.40;99.90;;;;;;5036417;28;20017;-42
2021/12/22 11:04:20;;;;;;;10.97;7.23;;;-0.40;99.90;;;;;;5027025;28;20462;-43
2021/12/22 11:06:48;;;;;;;11.30;7.07;;;-0.30;99.90;;;;;;5038396;28;20473;-43
2021/12/22 11:09:15;;;;;;;10.17;7.23;;;-0.30;99.90;;;;;;5027970;28;20071;-43
2021/12/22 11:11:44;;;;;;;13.03;8.50;;;-0.30;99.90;;;;;;5037711;28;20033;-43
2021/12/22 11:14:17;;;;;;;12.33;7.80;;;-0.20;99.90;;;;;;5027314;28;20738;-43
2021/12/22 11:17:02;;;;;;;13.38;7.45;;;-0.20;99.90;;;;;;5036363;28;20520;-43
2021/12/22 11:19:31;;;;;;;11.93;7.50;;;-0.10;99.90;;;;;;5007550;28;20033;-43
2021/12/22 11:22:16;;;;;;;14.43;8.10;;;-0.10;99.90;;;;;;5030426;28;20531;-43
2021/12/22 11:24:49;;;;;;;11.10;7.50;;;0.00;99.90;;;;;;5007130;28;20088;-44
2021/12/22 11:27:17;;;;;;;12.30;7.78;;;0.00;99.90;;;;;;5033066;28;20477;-44
2021/12/22 11:29:47;;;;;;;9.17;6.90;;;0.00;99.90;;;;;;5027635;28;20040;-43
2021/12/22 11:32:14;;;;;;;11.20;7.57;;;0.00;99.90;;;;;;5036321;28;20032;-44
2021/12/22 11:34:42;;;;;;;11.25;8.32;;;0.10;99.90;;;;;;5028244;28;20422;-43
2021/12/22 11:37:11;;;;;;;11.40;8.32;;;0.10;99.90;;;;;;5034264;28;20160;-43
2021/12/22 11:39:37;;;;;;;13.50;8.17;;;0.10;99.90;;;;;;5030954;28;20028;-42
2021/12/22 11:42:06;;;;;;;12.55;7.65;;;0.20;99.90;;;;;;5030629;28;20024;-44
2021/12/22 11:44:36;;;;;;;11.13;7.57;;;0.20;99.90;;;;;;5033023;28;20033;-44
2021/12/22 11:47:09;;;;;;;10.20;7.60;;;0.20;99.90;;;;;;5026975;28;20049;-43
2021/12/22 11:49:37;;;;;;;10.63;7.65;;;0.20;99.90;;;;;;5036694;28;20062;-44
2021/12/22 11:52:27;;;;;;;12.05;8.50;;;0.30;99.90;;;;;;5042233;28;20063;-43
2021/12/22 11:55:36;;;;;;;12.10;7.68;;;0.30;99.90;;;;;;5044181;28;20036;-44
2021/12/22 11:58:33;;;;;;;12.30;8.52;;;0.30;99.90;;;;;;5016243;28;20388;-44
2021/12/22 12:01:08;;;;;;;11.35;7.70;;;0.40;99.90;;;;;;5026620;28;20036;-42
2021/12/22 12:03:40;;;;;;;10.45;8.15;;;0.40;99.90;;;;;;5037528;28;20024;-42
2021/12/22 12:06:17;;;;;;;13.32;8.20;;;0.40;99.90;;;;;;5006641;28;20041;-44
2021/12/22 12:08:55;;;;;;;15.30;8.18;;;0.50;99.90;;;;;;5034128;28;20018;-43
2021/12/22 12:11:38;;;;;;;10.82;8.02;;;0.50;99.90;;;;;;5006146;28;20140;-42
2021/12/22 12:14:09;;;;;;;11.82;7.65;;;0.50;99.90;;;;;;5036223;28;20051;-43
2021/12/22 12:22:28;;;;;;;12.38;8.02;;;0.70;99.90;;;;;;5026407;28;20103;-43
2021/12/22 12:24:54;;;;;;;14.05;8.70;;;0.70;99.90;;;;;;5033593;28;20499;-43
2021/12/22 12:27:28;;;;;;;11.50;8.20;;;0.70;99.90;;;;;;5046107;28;20040;-43
2021/12/22 12:30:03;;;;;;;12.20;8.40;;;0.70;99.90;;;;;;5032998;28;20036;-42
2021/12/22 12:32:55;;;;;;;14.50;9.05;;;0.70;99.90;;;;;;5045477;28;20084;-44
2021/12/22 12:35:26;;;;;;;14.68;9.20;;;0.70;99.90;;;;;;5034391;28;20507;-44
2021/12/22 12:38:18;;;;;;;13.27;8.80;;;0.70;99.90;;;;;;5045293;28;20029;-43
2021/12/22 12:41:11;;;;;;;10.63;7.82;;;0.70;99.90;;;;;;5034182;28;20104;-44
2021/12/22 12:43:47;;;;;;;11.45;8.35;;;0.70;99.90;;;;;;5044528;28;20025;-43
2021/12/22 12:46:27;;;;;;;10.38;8.05;;;0.70;99.90;;;;;;5025756;28;20028;-45
2021/12/22 12:48:54;;;;;;;14.20;7.95;;;0.70;99.90;;;;;;5044166;28;20047;-43
2021/12/22 12:51:32;;;;;;;11.98;7.88;;;0.70;99.90;;;;;;5035507;28;20037;-43
2021/12/22 12:54:07;;;;;;;13.20;8.82;;;0.60;99.90;;;;;;5035316;28;20367;-42
2021/12/22 12:56:34;;;;;;;11.27;8.25;;;0.70;99.90;;;;;;5030862;28;20203;-43
2021/12/22 12:59:03;;;;;;;13.40;9.52;;;0.60;99.90;;;;;;5043266;28;20397;-42